sensor_id;sensor_type;location;lat;lon;timestamp;pressure;altitude;pressure_sealevel;temperature;humidity
29169;BME280;16219;42.864;23.360;2023-02-12T00:01:02;96880.16;;;-3.86;100.00
29169;BME280;16219;42.864;23.360;2023-02-12T00:03:33;96892.84;;;-3.84;100.00
29169;BME280;16219;42.864;23.360;2023-02-12T00:06:00;96868.97;;;-4.06;100.00
29169;BME280;16219;42.864;23.360;2023-02-12T00:08:28;96879.25;;;-4.06;100.00
29169;BME280;16219;42.864;23.360;2023-02-12T00:10:56;96886.00;;;-4.05;100.00
29169;BME280;16219;42.864;23.360;2023-02-12T00:13:23;96878.84;;;-4.10;100.00
29169;BME280;16219;42.864;23.360;2023-02-12T00:15:50;96895.16;;;-4.03;100.00
29169;BME280;16219;42.864;23.360;2023-02-12T00:18:17;96899.47;;;-4.10;100.00
29169;BME280;16219;42.864;23.360;2023-02-12T00:20:44;96896.09;;;-4.10;100.00
29169;BME280;16219;42.864;23.360;2023-02-12T00:23:11;96893.34;;;-4.02;100.00
29169;BME280;16219;42.864;23.360;2023-02-12T00:25:40;96877.69;;;-4.00;100.00
29169;BME280;16219;42.864;23.360;2023-02-12T00:28:08;96895.22;;;-3.89;100.00
29169;BME280;16219;42.864;23.360;2023-02-12T00:30:35;96888.47;;;-3.84;100.00
29169;BME280;16219;42.864;23.360;2023-02-12T00:33:02;96883.69;;;-3.87;100.00
29169;BME280;16219;42.864;23.360;2023-02-12T00:35:31;96882.16;;;-3.81;100.00
29169;BME280;16219;42.864;23.360;2023-02-12T00:37:58;96867.22;;;-3.92;100.00
29169;BME280;16219;42.864;23.360;2023-02-12T00:40:26;96876.44;;;-3.70;100.00
29169;BME280;16219;42.864;23.360;2023-02-12T00:42:53;96869.31;;;-3.68;100.00
29169;BME280;16219;42.864;23.360;2023-02-12T00:45:21;96863.53;;;-3.70;100.00
29169;BME280;16219;42.864;23.360;2023-02-12T00:47:50;96865.72;;;-3.73;100.00
29169;BME280;16219;42.864;23.360;2023-02-12T00:50:17;96867.53;;;-3.67;100.00
29169;BME280;16219;42.864;23.360;2023-02-12T00:52:44;96863.16;;;-3.67;100.00
29169;BME280;16219;42.864;23.360;2023-02-12T00:55:11;96870.13;;;-3.61;100.00
29169;BME280;16219;42.864;23.360;2023-02-12T00:57:41;96866.78;;;-3.55;100.00
29169;BME280;16219;42.864;23.360;2023-02-12T01:00:08;96879.88;;;-3.49;100.00
29169;BME280;16219;42.864;23.360;2023-02-12T01:02:37;96864.78;;;-3.53;100.00
29169;BME280;16219;42.864;23.360;2023-02-12T01:05:07;96876.28;;;-3.48;100.00
29169;BME280;16219;42.864;23.360;2023-02-12T01:07:34;96874.91;;;-3.44;100.00
29169;BME280;16219;42.864;23.360;2023-02-12T01:10:04;96869.19;;;-3.46;100.00
29169;BME280;16219;42.864;23.360;2023-02-12T01:12:31;96864.84;;;-3.39;100.00
29169;BME280;16219;42.864;23.360;2023-02-12T01:14:59;96870.00;;;-3.33;100.00
29169;BME280;16219;42.864;23.360;2023-02-12T01:17:26;96858.13;;;-3.27;100.00
29169;BME280;16219;42.864;23.360;2023-02-12T01:19:57;96860.88;;;-3.29;100.00
29169;BME280;16219;42.864;23.360;2023-02-12T01:22:27;96867.63;;;-3.28;100.00
29169;BME280;16219;42.864;23.360;2023-02-12T01:24:53;96861.50;;;-3.27;100.00
29169;BME280;16219;42.864;23.360;2023-02-12T01:27:20;96859.25;;;-3.36;100.00
29169;BME280;16219;42.864;23.360;2023-02-12T01:29:47;96848.75;;;-3.28;100.00
29169;BME280;16219;42.864;23.360;2023-02-12T01:32:14;96853.75;;;-3.27;100.00
29169;BME280;16219;42.864;23.360;2023-02-12T01:34:41;96836.84;;;-3.29;100.00
29169;BME280;16219;42.864;23.360;2023-02-12T01:37:09;96843.00;;;-3.37;100.00
29169;BME280;16219;42.864;23.360;2023-02-12T01:39:36;96849.38;;;-3.26;100.00
29169;BME280;16219;42.864;23.360;2023-02-12T01:42:04;96841.63;;;-3.26;100.00
29169;BME280;16219;42.864;23.360;2023-02-12T01:44:33;96822.38;;;-3.30;100.00
29169;BME280;16219;42.864;23.360;2023-02-12T01:47:02;96831.50;;;-3.34;100.00
29169;BME280;16219;42.864;23.360;2023-02-12T01:49:32;96838.03;;;-3.38;100.00
29169;BME280;16219;42.864;23.360;2023-02-12T01:52:04;96837.84;;;-3.43;100.00
29169;BME280;16219;42.864;23.360;2023-02-12T01:54:34;96845.41;;;-3.35;100.00
29169;BME280;16219;42.864;23.360;2023-02-12T01:57:04;96822.94;;;-3.48;100.00
29169;BME280;16219;42.864;23.360;2023-02-12T01:59:33;96846.16;;;-3.41;100.00
29169;BME280;16219;42.864;23.360;2023-02-12T02:02:02;96852.09;;;-3.54;100.00
29169;BME280;16219;42.864;23.360;2023-02-12T02:04:35;96850.88;;;-3.58;100.00
29169;BME280;16219;42.864;23.360;2023-02-12T02:07:04;96833.25;;;-3.55;100.00
29169;BME280;16219;42.864;23.360;2023-02-12T02:09:35;96835.63;;;-3.60;100.00
29169;BME280;16219;42.864;23.360;2023-02-12T02:12:04;96834.59;;;-3.72;100.00
29169;BME280;16219;42.864;23.360;2023-02-12T02:14:49;96824.84;;;-3.70;100.00
29169;BME280;16219;42.864;23.360;2023-02-12T02:17:32;96830.25;;;-3.65;100.00
29169;BME280;16219;42.864;23.360;2023-02-12T02:20:25;96828.63;;;-3.66;100.00
29169;BME280;16219;42.864;23.360;2023-02-12T02:23:09;96824.19;;;-3.92;100.00
29169;BME280;16219;42.864;23.360;2023-02-12T02:25:59;96817.84;;;-4.03;100.00
29169;BME280;16219;42.864;23.360;2023-02-12T02:28:46;96806.22;;;-4.27;100.00
29169;BME280;16219;42.864;23.360;2023-02-12T02:31:25;96823.53;;;-4.14;100.00
29169;BME280;16219;42.864;23.360;2023-02-12T02:34:00;96826.53;;;-4.04;100.00
29169;BME280;16219;42.864;23.360;2023-02-12T02:36:34;96824.38;;;-4.00;100.00
29169;BME280;16219;42.864;23.360;2023-02-12T02:39:06;96844.06;;;-3.86;100.00
29169;BME280;16219;42.864;23.360;2023-02-12T02:41:40;96820.25;;;-3.94;100.00
29169;BME280;16219;42.864;23.360;2023-02-12T02:44:16;96844.91;;;-3.72;100.00
29169;BME280;16219;42.864;23.360;2023-02-12T02:46:49;96832.00;;;-3.72;100.00
29169;BME280;16219;42.864;23.360;2023-02-12T02:49:20;96833.41;;;-3.69;100.00
29169;BME280;16219;42.864;23.360;2023-02-12T02:51:52;96835.63;;;-3.60;100.00
29169;BME280;16219;42.864;23.360;2023-02-12T02:54:24;96850.09;;;-3.59;100.00
29169;BME280;16219;42.864;23.360;2023-02-12T02:56:57;96837.41;;;-3.60;100.00
29169;BME280;16219;42.864;23.360;2023-02-12T02:59:32;96840.19;;;-3.48;100.00
29169;BME280;16219;42.864;23.360;2023-02-12T03:02:07;96844.97;;;-3.45;100.00
29169;BME280;16219;42.864;23.360;2023-02-12T03:04:38;96843.78;;;-3.43;100.00
29169;BME280;16219;42.864;23.360;2023-02-12T03:07:09;96848.56;;;-3.33;100.00
29169;BME280;16219;42.864;23.360;2023-02-12T03:09:39;96843.81;;;-3.23;100.00
29169;BME280;16219;42.864;23.360;2023-02-12T03:12:10;96860.09;;;-3.22;100.00
29169;BME280;16219;42.864;23.360;2023-02-12T03:14:42;96849.75;;;-3.29;100.00
29169;BME280;16219;42.864;23.360;2023-02-12T03:17:17;96837.25;;;-3.25;100.00
29169;BME280;16219;42.864;23.360;2023-02-12T03:19:46;96835.88;;;-3.21;100.00
29169;BME280;16219;42.864;23.360;2023-02-12T03:22:19;96853.75;;;-3.20;100.00
29169;BME280;16219;42.864;23.360;2023-02-12T03:24:52;96834.88;;;-3.27;100.00
29169;BME280;16219;42.864;23.360;2023-02-12T03:27:27;96832.50;;;-3.15;100.00
29169;BME280;16219;42.864;23.360;2023-02-12T03:29:57;96812.44;;;-3.20;100.00
29169;BME280;16219;42.864;23.360;2023-02-12T03:32:30;96797.34;;;-3.36;100.00
29169;BME280;16219;42.864;23.360;2023-02-12T03:35:08;96819.19;;;-3.32;100.00
29169;BME280;16219;42.864;23.360;2023-02-12T03:37:38;96818.59;;;-3.21;100.00
29169;BME280;16219;42.864;23.360;2023-02-12T03:40:13;96818.81;;;-3.16;100.00
29169;BME280;16219;42.864;23.360;2023-02-12T03:42:46;96824.75;;;-3.15;100.00
29169;BME280;16219;42.864;23.360;2023-02-12T03:45:21;96832.72;;;-3.17;100.00
29169;BME280;16219;42.864;23.360;2023-02-12T03:47:58;96823.56;;;-3.13;100.00
29169;BME280;16219;42.864;23.360;2023-02-12T03:50:33;96824.56;;;-3.14;100.00
29169;BME280;16219;42.864;23.360;2023-02-12T03:53:03;96801.53;;;-3.22;100.00
29169;BME280;16219;42.864;23.360;2023-02-12T03:55:31;96825.75;;;-3.16;100.00
29169;BME280;16219;42.864;23.360;2023-02-12T03:58:02;96815.03;;;-3.20;100.00
29169;BME280;16219;42.864;23.360;2023-02-12T04:00:36;96820.38;;;-3.15;100.00
29169;BME280;16219;42.864;23.360;2023-02-12T04:03:06;96828.16;;;-3.08;100.00
29169;BME280;16219;42.864;23.360;2023-02-12T04:05:33;96837.06;;;-3.11;100.00
29169;BME280;16219;42.864;23.360;2023-02-12T04:08:08;96831.72;;;-3.16;100.00
29169;BME280;16219;42.864;23.360;2023-02-12T04:10:43;96831.31;;;-3.06;100.00
29169;BME280;16219;42.864;23.360;2023-02-12T04:13:20;96831.53;;;-3.01;100.00
29169;BME280;16219;42.864;23.360;2023-02-12T04:16:00;96829.94;;;-2.95;100.00
29169;BME280;16219;42.864;23.360;2023-02-12T04:18:37;96823.38;;;-2.85;100.00
29169;BME280;16219;42.864;23.360;2023-02-12T04:21:12;96830.72;;;-2.82;100.00
29169;BME280;16219;42.864;23.360;2023-02-12T04:23:47;96824.38;;;-2.79;100.00
29169;BME280;16219;42.864;23.360;2023-02-12T04:26:23;96830.13;;;-2.77;100.00
29169;BME280;16219;42.864;23.360;2023-02-12T04:29:02;96835.88;;;-2.75;100.00
29169;BME280;16219;42.864;23.360;2023-02-12T04:31:35;96832.31;;;-2.74;100.00
29169;BME280;16219;42.864;23.360;2023-02-12T04:34:08;96833.91;;;-2.80;100.00
29169;BME280;16219;42.864;23.360;2023-02-12T04:36:44;96836.28;;;-2.78;100.00
29169;BME280;16219;42.864;23.360;2023-02-12T04:39:16;96828.94;;;-2.74;100.00
29169;BME280;16219;42.864;23.360;2023-02-12T04:41:44;96789.81;;;-2.91;100.00
29169;BME280;16219;42.864;23.360;2023-02-12T04:44:13;96835.88;;;-2.68;100.00
29169;BME280;16219;42.864;23.360;2023-02-12T04:46:41;96824.16;;;-2.78;100.00
29169;BME280;16219;42.864;23.360;2023-02-12T04:49:13;96839.06;;;-2.80;100.00
29169;BME280;16219;42.864;23.360;2023-02-12T04:51:41;96832.31;;;-2.74;100.00
29169;BME280;16219;42.864;23.360;2023-02-12T04:54:08;96840.63;;;-2.72;100.00
29169;BME280;16219;42.864;23.360;2023-02-12T04:56:35;96822.38;;;-2.77;100.00
29169;BME280;16219;42.864;23.360;2023-02-12T04:59:02;96853.34;;;-2.64;100.00
29169;BME280;16219;42.864;23.360;2023-02-12T05:01:29;96859.13;;;-2.62;100.00
29169;BME280;16219;42.864;23.360;2023-02-12T05:03:56;96862.28;;;-2.60;100.00
29169;BME280;16219;42.864;23.360;2023-02-12T05:06:24;96855.75;;;-2.62;100.00
29169;BME280;16219;42.864;23.360;2023-02-12T05:08:51;96859.31;;;-2.57;100.00
29169;BME280;16219;42.864;23.360;2023-02-12T05:11:18;96849.19;;;-2.65;100.00
29169;BME280;16219;42.864;23.360;2023-02-12T05:13:47;96873.22;;;-2.51;100.00
29169;BME280;16219;42.864;23.360;2023-02-12T05:16:15;96871.03;;;-2.54;100.00
29169;BME280;16219;42.864;23.360;2023-02-12T05:18:43;96865.09;;;-2.55;100.00
29169;BME280;16219;42.864;23.360;2023-02-12T05:21:10;96869.84;;;-2.52;100.00
29169;BME280;16219;42.864;23.360;2023-02-12T05:23:39;96857.72;;;-2.58;100.00
29169;BME280;16219;42.864;23.360;2023-02-12T05:26:09;96855.94;;;-2.50;100.00
29169;BME280;16219;42.864;23.360;2023-02-12T05:28:36;96862.47;;;-2.48;100.00
29169;BME280;16219;42.864;23.360;2023-02-12T05:31:05;96872.59;;;-2.46;100.00
29169;BME280;16219;42.864;23.360;2023-02-12T05:33:33;96875.00;;;-2.52;100.00
29169;BME280;16219;42.864;23.360;2023-02-12T05:36:03;96862.25;;;-2.46;100.00
29169;BME280;16219;42.864;23.360;2023-02-12T05:38:30;96856.34;;;-2.54;100.00
29169;BME280;16219;42.864;23.360;2023-02-12T05:41:02;96875.41;;;-2.41;100.00
29169;BME280;16219;42.864;23.360;2023-02-12T05:43:29;96867.66;;;-2.41;100.00
29169;BME280;16219;42.864;23.360;2023-02-12T05:45:58;96876.97;;;-2.40;100.00
29169;BME280;16219;42.864;23.360;2023-02-12T05:48:26;96871.81;;;-2.47;100.00
29169;BME280;16219;42.864;23.360;2023-02-12T05:50:53;96875.41;;;-2.55;100.00
29169;BME280;16219;42.864;23.360;2023-02-12T05:53:20;96871.22;;;-2.56;100.00
29169;BME280;16219;42.864;23.360;2023-02-12T05:55:47;96876.00;;;-2.66;100.00
29169;BME280;16219;42.864;23.360;2023-02-12T05:58:16;96876.00;;;-2.53;100.00
29169;BME280;16219;42.864;23.360;2023-02-12T06:00:43;96879.19;;;-2.50;100.00
29169;BME280;16219;42.864;23.360;2023-02-12T06:03:10;96874.41;;;-2.60;100.00
29169;BME280;16219;42.864;23.360;2023-02-12T06:05:37;96893.28;;;-2.46;100.00
29169;BME280;16219;42.864;23.360;2023-02-12T06:08:05;96890.50;;;-2.52;100.00
29169;BME280;16219;42.864;23.360;2023-02-12T06:10:32;96882.75;;;-2.52;100.00
29169;BME280;16219;42.864;23.360;2023-02-12T06:12:59;96897.88;;;-2.42;100.00
29169;BME280;16219;42.864;23.360;2023-02-12T06:15:28;96887.50;;;-2.35;100.00
29169;BME280;16219;42.864;23.360;2023-02-12T06:17:56;96899.25;;;-2.33;100.00
29169;BME280;16219;42.864;23.360;2023-02-12T06:20:23;96898.63;;;-2.28;100.00
29169;BME280;16219;42.864;23.360;2023-02-12T06:22:50;96900.44;;;-2.29;100.00
29169;BME280;16219;42.864;23.360;2023-02-12T06:25:17;96904.00;;;-2.36;100.00
29169;BME280;16219;42.864;23.360;2023-02-12T06:27:44;96897.84;;;-2.35;100.00
29169;BME280;16219;42.864;23.360;2023-02-12T06:30:13;96897.63;;;-2.27;100.00
29169;BME280;16219;42.864;23.360;2023-02-12T06:32:42;96898.22;;;-2.18;100.00
29169;BME280;16219;42.864;23.360;2023-02-12T06:35:09;96896.25;;;-2.16;100.00
29169;BME280;16219;42.864;23.360;2023-02-12T06:37:36;96877.34;;;-2.30;100.00
29169;BME280;16219;42.864;23.360;2023-02-12T06:40:05;96897.81;;;-2.15;100.00
29169;BME280;16219;42.864;23.360;2023-02-12T06:42:32;96895.41;;;-2.10;100.00
29169;BME280;16219;42.864;23.360;2023-02-12T06:44:59;96906.53;;;-2.10;100.00
29169;BME280;16219;42.864;23.360;2023-02-12T06:47:28;96897.00;;;-2.09;100.00
29169;BME280;16219;42.864;23.360;2023-02-12T06:49:56;96898.59;;;-2.08;100.00
29169;BME280;16219;42.864;23.360;2023-02-12T06:52:23;96913.50;;;-2.04;100.00
29169;BME280;16219;42.864;23.360;2023-02-12T06:54:50;96911.09;;;-1.98;100.00
29169;BME280;16219;42.864;23.360;2023-02-12T06:57:18;96916.84;;;-1.96;100.00
29169;BME280;16219;42.864;23.360;2023-02-12T06:59:46;96913.28;;;-1.95;100.00
29169;BME280;16219;42.864;23.360;2023-02-12T07:02:13;96891.03;;;-2.03;100.00
29169;BME280;16219;42.864;23.360;2023-02-12T07:04:41;96911.69;;;-1.90;100.00
29169;BME280;16219;42.864;23.360;2023-02-12T07:07:09;96898.94;;;-1.91;100.00
29169;BME280;16219;42.864;23.360;2023-02-12T07:09:37;96886.44;;;-1.94;100.00
29169;BME280;16219;42.864;23.360;2023-02-12T07:12:04;96915.63;;;-1.74;100.00
29169;BME280;16219;42.864;23.360;2023-02-12T07:14:32;96922.16;;;-1.71;100.00
29169;BME280;16219;42.864;23.360;2023-02-12T07:16:59;96921.75;;;-1.68;100.00
29169;BME280;16219;42.864;23.360;2023-02-12T07:19:28;96920.34;;;-1.64;100.00
29169;BME280;16219;42.864;23.360;2023-02-12T07:21:55;96917.56;;;-1.63;100.00
29169;BME280;16219;42.864;23.360;2023-02-12T07:24:24;96917.38;;;-1.68;100.00
29169;BME280;16219;42.864;23.360;2023-02-12T07:26:52;96907.25;;;-1.76;100.00
29169;BME280;16219;42.864;23.360;2023-02-12T07:29:19;96917.19;;;-1.73;100.00
29169;BME280;16219;42.864;23.360;2023-02-12T07:31:46;96926.38;;;-1.77;100.00
29169;BME280;16219;42.864;23.360;2023-02-12T07:34:14;96924.19;;;-1.80;100.00
29169;BME280;16219;42.864;23.360;2023-02-12T07:36:41;96919.84;;;-1.86;100.00
29169;BME280;16219;42.864;23.360;2023-02-12T07:39:10;96925.56;;;-1.78;100.00
29169;BME280;16219;42.864;23.360;2023-02-12T07:41:39;96928.34;;;-1.79;100.00
29169;BME280;16219;42.864;23.360;2023-02-12T07:44:07;96921.59;;;-1.80;100.00
29169;BME280;16219;42.864;23.360;2023-02-12T07:46:37;96889.03;;;-1.94;100.00
29169;BME280;16219;42.864;23.360;2023-02-12T07:49:06;96925.53;;;-1.71;100.00
29169;BME280;16219;42.864;23.360;2023-02-12T07:51:35;96925.72;;;-1.66;100.00
29169;BME280;16219;42.864;23.360;2023-02-12T07:54:03;96927.72;;;-1.61;100.00
29169;BME280;16219;42.864;23.360;2023-02-12T07:56:32;96929.47;;;-1.55;100.00
29169;BME280;16219;42.864;23.360;2023-02-12T07:59:04;96934.63;;;-1.48;100.00
29169;BME280;16219;42.864;23.360;2023-02-12T08:01:33;96935.38;;;-1.41;100.00
29169;BME280;16219;42.864;23.360;2023-02-12T08:04:03;96928.00;;;-1.38;100.00
29169;BME280;16219;42.864;23.360;2023-02-12T08:06:32;96932.38;;;-1.38;100.00
29169;BME280;16219;42.864;23.360;2023-02-12T08:09:03;96933.16;;;-1.31;100.00
29169;BME280;16219;42.864;23.360;2023-02-12T08:11:30;96921.25;;;-1.39;100.00
29169;BME280;16219;42.864;23.360;2023-02-12T08:13:59;96930.34;;;-1.23;100.00
29169;BME280;16219;42.864;23.360;2023-02-12T08:16:29;96935.47;;;-1.16;100.00
29169;BME280;16219;42.864;23.360;2023-02-12T08:18:57;96941.25;;;-1.14;100.00
29169;BME280;16219;42.864;23.360;2023-02-12T08:21:26;96944.38;;;-1.06;100.00
29169;BME280;16219;42.864;23.360;2023-02-12T08:23:55;96912.16;;;-1.16;100.00
29169;BME280;16219;42.864;23.360;2023-02-12T08:26:23;96934.75;;;-0.98;100.00
29169;BME280;16219;42.864;23.360;2023-02-12T08:28:54;96948.47;;;-0.91;100.00
29169;BME280;16219;42.864;23.360;2023-02-12T08:31:23;96950.59;;;-0.82;100.00
29169;BME280;16219;42.864;23.360;2023-02-12T08:33:54;96954.59;;;-0.79;100.00
29169;BME280;16219;42.864;23.360;2023-02-12T08:36:23;96965.19;;;-0.87;100.00
29169;BME280;16219;42.864;23.360;2023-02-12T08:38:50;96951.44;;;-0.88;100.00
29169;BME280;16219;42.864;23.360;2023-02-12T08:41:20;96943.88;;;-0.89;100.00
29169;BME280;16219;42.864;23.360;2023-02-12T08:43:48;96962.09;;;-0.71;100.00
29169;BME280;16219;42.864;23.360;2023-02-12T08:46:17;96967.44;;;-0.66;100.00
29169;BME280;16219;42.864;23.360;2023-02-12T08:48:45;96946.97;;;-0.74;100.00
29169;BME280;16219;42.864;23.360;2023-02-12T08:51:16;96969.94;;;-0.53;100.00
29169;BME280;16219;42.864;23.360;2023-02-12T08:53:45;96962.69;;;-0.44;100.00
29169;BME280;16219;42.864;23.360;2023-02-12T08:56:15;96965.09;;;-0.42;100.00
29169;BME280;16219;42.864;23.360;2023-02-12T08:58:43;96972.44;;;-0.39;100.00
29169;BME280;16219;42.864;23.360;2023-02-12T09:01:13;96963.97;;;-0.28;100.00
29169;BME280;16219;42.864;23.360;2023-02-12T09:03:40;96963.13;;;-0.22;100.00
29169;BME280;16219;42.864;23.360;2023-02-12T09:06:08;96967.47;;;-0.16;100.00
29169;BME280;16219;42.864;23.360;2023-02-12T09:08:37;96970.06;;;0.09;100.00
29169;BME280;16219;42.864;23.360;2023-02-12T09:11:05;96975.53;;;0.19;100.00
29169;BME280;16219;42.864;23.360;2023-02-12T09:13:33;96960.09;;;0.24;100.00
29169;BME280;16219;42.864;23.360;2023-02-12T09:16:02;96964.59;;;0.36;100.00
29169;BME280;16219;42.864;23.360;2023-02-12T09:18:30;96945.19;;;0.38;100.00
29169;BME280;16219;42.864;23.360;2023-02-12T09:21:00;96959.03;;;0.50;100.00
29169;BME280;16219;42.864;23.360;2023-02-12T09:23:28;96963.63;;;0.67;100.00
29169;BME280;16219;42.864;23.360;2023-02-12T09:25:57;96960.59;;;0.70;100.00
29169;BME280;16219;42.864;23.360;2023-02-12T09:28:24;96961.31;;;0.77;100.00
29169;BME280;16219;42.864;23.360;2023-02-12T09:30:51;96966.84;;;0.99;100.00
29169;BME280;16219;42.864;23.360;2023-02-12T09:33:18;96977.31;;;1.22;100.00
29169;BME280;16219;42.864;23.360;2023-02-12T09:35:47;96967.63;;;1.30;100.00
29169;BME280;16219;42.864;23.360;2023-02-12T09:38:15;96966.19;;;1.45;100.00
29169;BME280;16219;42.864;23.360;2023-02-12T09:40:51;96976.59;;;1.57;100.00
29169;BME280;16219;42.864;23.360;2023-02-12T09:43:30;96977.75;;;1.73;100.00
29169;BME280;16219;42.864;23.360;2023-02-12T09:46:04;96981.19;;;1.85;100.00
29169;BME280;16219;42.864;23.360;2023-02-12T09:48:48;96982.53;;;1.99;100.00
29169;BME280;16219;42.864;23.360;2023-02-12T09:51:19;96976.78;;;2.21;100.00
29169;BME280;16219;42.864;23.360;2023-02-12T09:53:48;96963.09;;;2.14;100.00
29169;BME280;16219;42.864;23.360;2023-02-12T09:56:20;96977.44;;;2.40;100.00
29169;BME280;16219;42.864;23.360;2023-02-12T09:58:52;96978.84;;;2.71;100.00
29169;BME280;16219;42.864;23.360;2023-02-12T10:01:22;96975.00;;;2.73;100.00
29169;BME280;16219;42.864;23.360;2023-02-12T10:03:50;96985.84;;;2.82;100.00
29169;BME280;16219;42.864;23.360;2023-02-12T10:06:20;96992.91;;;2.70;100.00
29169;BME280;16219;42.864;23.360;2023-02-12T10:09:13;96985.25;;;2.52;100.00
29169;BME280;16219;42.864;23.360;2023-02-12T10:11:52;96988.09;;;2.38;100.00
29169;BME280;16219;42.864;23.360;2023-02-12T10:14:36;96976.75;;;2.33;100.00
29169;BME280;16219;42.864;23.360;2023-02-12T10:17:15;96974.06;;;2.39;100.00
29169;BME280;16219;42.864;23.360;2023-02-12T10:20:10;96986.03;;;2.52;100.00
29169;BME280;16219;42.864;23.360;2023-02-12T10:22:49;96988.41;;;2.54;100.00
29169;BME280;16219;42.864;23.360;2023-02-12T10:25:25;96980.59;;;2.54;100.00
29169;BME280;16219;42.864;23.360;2023-02-12T10:27:56;96984.75;;;2.55;100.00
29169;BME280;16219;42.864;23.360;2023-02-12T10:30:29;96992.03;;;2.53;100.00
29169;BME280;16219;42.864;23.360;2023-02-12T10:33:02;96991.16;;;2.35;100.00
29169;BME280;16219;42.864;23.360;2023-02-12T10:35:31;96979.72;;;2.36;100.00
29169;BME280;16219;42.864;23.360;2023-02-12T10:38:03;96980.50;;;2.25;100.00
29169;BME280;16219;42.864;23.360;2023-02-12T10:40:33;96982.88;;;2.27;100.00
29169;BME280;16219;42.864;23.360;2023-02-12T10:43:03;96982.88;;;2.38;100.00
29169;BME280;16219;42.864;23.360;2023-02-12T10:45:34;96982.06;;;2.38;100.00
29169;BME280;16219;42.864;23.360;2023-02-12T10:48:06;96980.94;;;2.45;100.00
29169;BME280;16219;42.864;23.360;2023-02-12T10:50:51;96994.16;;;2.67;100.00
29169;BME280;16219;42.864;23.360;2023-02-12T10:53:23;96982.16;;;2.66;100.00
29169;BME280;16219;42.864;23.360;2023-02-12T10:56:13;96974.22;;;2.61;100.00
29169;BME280;16219;42.864;23.360;2023-02-12T10:58:50;96991.19;;;2.75;100.00
29169;BME280;16219;42.864;23.360;2023-02-12T11:01:23;96985.84;;;2.82;100.00
29169;BME280;16219;42.864;23.360;2023-02-12T11:03:52;96986.22;;;2.74;100.00
29169;BME280;16219;42.864;23.360;2023-02-12T11:06:21;96987.88;;;2.80;100.00
29169;BME280;16219;42.864;23.360;2023-02-12T11:08:49;96986.31;;;2.79;100.00
29169;BME280;16219;42.864;23.360;2023-02-12T11:11:19;96976.56;;;2.86;100.00
29169;BME280;16219;42.864;23.360;2023-02-12T11:13:53;96977.06;;;3.00;100.00
29169;BME280;16219;42.864;23.360;2023-02-12T11:16:32;96983.53;;;3.26;100.00
29169;BME280;16219;42.864;23.360;2023-02-12T11:19:02;96977.56;;;3.42;100.00
29169;BME280;16219;42.864;23.360;2023-02-12T11:21:31;96975.75;;;3.60;100.00
29169;BME280;16219;42.864;23.360;2023-02-12T11:24:20;96974.34;;;3.69;100.00
29169;BME280;16219;42.864;23.360;2023-02-12T11:26:47;96979.66;;;3.74;100.00
29169;BME280;16219;42.864;23.360;2023-02-12T11:29:20;96975.63;;;3.83;100.00
29169;BME280;16219;42.864;23.360;2023-02-12T11:34:36;96980.13;;;4.05;100.00
29169;BME280;16219;42.864;23.360;2023-02-12T11:37:06;96988.50;;;4.07;100.00
29169;BME280;16219;42.864;23.360;2023-02-12T11:39:45;96980.06;;;3.99;100.00
29169;BME280;16219;42.864;23.360;2023-02-12T11:42:15;96985.56;;;4.20;100.00
29169;BME280;16219;42.864;23.360;2023-02-12T11:44:47;96980.19;;;4.10;100.00
29169;BME280;16219;42.864;23.360;2023-02-12T11:47:17;96978.44;;;4.15;100.00
29169;BME280;16219;42.864;23.360;2023-02-12T11:49:51;96972.84;;;4.07;100.00
29169;BME280;16219;42.864;23.360;2023-02-12T11:52:22;96959.31;;;3.93;100.00
29169;BME280;16219;42.864;23.360;2023-02-12T11:54:56;96975.44;;;4.07;100.00
29169;BME280;16219;42.864;23.360;2023-02-12T11:57:35;96980.16;;;4.26;100.00
29169;BME280;16219;42.864;23.360;2023-02-12T12:00:04;96977.88;;;4.30;100.00
29169;BME280;16219;42.864;23.360;2023-02-12T12:02:36;96976.31;;;4.29;100.00
29169;BME280;16219;42.864;23.360;2023-02-12T12:05:10;96988.88;;;4.15;100.00
29169;BME280;16219;42.864;23.360;2023-02-12T12:07:42;96985.09;;;4.23;100.00
29169;BME280;16219;42.864;23.360;2023-02-12T12:10:14;96984.94;;;4.30;100.00
29169;BME280;16219;42.864;23.360;2023-02-12T12:12:51;96993.22;;;4.26;100.00
29169;BME280;16219;42.864;23.360;2023-02-12T12:15:24;96989.66;;;4.33;100.00
29169;BME280;16219;42.864;23.360;2023-02-12T12:18:19;96981.84;;;4.16;100.00
29169;BME280;16219;42.864;23.360;2023-02-12T12:21:12;96985.56;;;4.03;100.00
29169;BME280;16219;42.864;23.360;2023-02-12T12:23:43;96990.00;;;4.03;100.00
29169;BME280;16219;42.864;23.360;2023-02-12T12:26:17;96997.44;;;3.94;100.00
29169;BME280;16219;42.864;23.360;2023-02-12T12:28:50;96987.97;;;4.05;100.00
29169;BME280;16219;42.864;23.360;2023-02-12T12:31:26;96982.16;;;4.03;100.00
29169;BME280;16219;42.864;23.360;2023-02-12T12:34:02;96976.03;;;3.75;100.00
29169;BME280;16219;42.864;23.360;2023-02-12T12:37:01;96976.16;;;3.85;100.00
29169;BME280;16219;42.864;23.360;2023-02-12T12:39:35;96972.63;;;3.91;100.00
29169;BME280;16219;42.864;23.360;2023-02-12T12:42:40;96981.38;;;3.85;100.00
29169;BME280;16219;42.864;23.360;2023-02-12T12:45:29;96986.22;;;3.76;100.00
29169;BME280;16219;42.864;23.360;2023-02-12T12:48:06;96929.03;;;3.41;100.00
29169;BME280;16219;42.864;23.360;2023-02-12T12:50:53;96982.19;;;3.86;100.00
29169;BME280;16219;42.864;23.360;2023-02-12T12:53:36;96984.31;;;4.06;100.00
29169;BME280;16219;42.864;23.360;2023-02-12T12:56:26;96985.94;;;4.12;100.00
29169;BME280;16219;42.864;23.360;2023-02-12T12:59:15;96993.38;;;4.20;100.00
29169;BME280;16219;42.864;23.360;2023-02-12T13:05:04;97002.16;;;4.31;100.00
29169;BME280;16219;42.864;23.360;2023-02-12T13:07:48;96997.88;;;4.24;100.00
29169;BME280;16219;42.864;23.360;2023-02-12T13:10:30;96995.38;;;4.30;100.00